Time;durP1;ratioP1;P1;durP2;ratioP2;P2;SDS_P1;SDS_P2;PMS_P1;PMS_P2;Temp;Humidity;BMP_temperature;BMP_pressure;BME280_temperature;BME280_humidity;BME280_pressure;Samples;Min_cycle;Max_cycle;Signal;HPM_P1;HPM_P2
2023/04/06 00:00:28;;;;;;;16.80;7.03;;;;;;;13.54;62.22;99902.45;1802577;79;21175;-58
2023/04/06 00:03:34;;;;;;;12.80;5.62;;;;;;;13.53;62.30;99907.09;1803434;78;21202;-58
2023/04/06 00:06:42;;;;;;;14.18;6.60;;;;;;;13.53;62.41;99902.97;1802811;78;21213;-59
2023/04/06 00:09:48;;;;;;;10.85;6.00;;;;;;;13.53;62.45;99904.86;1802873;79;21383;-59
2023/04/06 00:12:57;;;;;;;14.70;7.25;;;;;;;13.51;62.53;99902.83;1802715;78;21181;-60
2023/04/06 00:16:05;;;;;;;12.03;6.10;;;;;;;13.52;62.67;99899.88;1802660;78;21209;-59
2023/04/06 00:19:12;;;;;;;16.55;6.80;;;;;;;13.54;62.75;99899.70;1803016;78;21186;-59
2023/04/06 00:22:18;;;;;;;13.10;6.08;;;;;;;13.56;62.83;99889.31;1802544;79;21340;-59
2023/04/06 00:25:26;;;;;;;15.60;6.42;;;;;;;13.56;62.88;99893.44;1802756;78;21166;-59
2023/04/06 00:28:33;;;;;;;13.62;6.83;;;;;;;13.55;62.94;99893.13;1802589;79;21190;-60
2023/04/06 00:31:38;;;;;;;19.95;6.47;;;;;;;13.53;63.01;99891.11;1802628;78;21196;-59
2023/04/06 00:34:44;;;;;;;15.95;7.33;;;;;;;13.52;63.05;99886.67;1802778;79;21161;-60
2023/04/06 00:37:53;;;;;;;12.13;6.62;;;;;;;13.49;63.13;99889.29;1802695;78;21327;-58
2023/04/06 00:41:00;;;;;;;13.20;6.22;;;;;;;13.47;63.21;99890.56;1802425;79;21328;-58
2023/04/06 00:44:06;;;;;;;15.00;6.60;;;;;;;13.45;63.28;99880.29;1802624;79;21325;-59
2023/04/06 00:47:12;;;;;;;17.05;6.90;;;;;;;13.42;63.31;99876.06;1802458;79;21415;-59
2023/04/06 00:50:19;;;;;;;14.80;6.60;;;;;;;13.39;63.41;99872.36;1802911;78;21339;-58
2023/04/06 00:53:25;;;;;;;10.60;6.47;;;;;;;13.38;63.50;99872.02;1802662;79;21198;-59
2023/04/06 00:56:32;;;;;;;11.63;6.67;;;;;;;13.35;63.53;99871.05;1802454;79;21245;-58
2023/04/06 00:59:38;;;;;;;12.20;6.50;;;;;;;13.35;63.59;99875.18;1802709;78;21296;-59
2023/04/06 01:02:47;;;;;;;18.23;6.15;;;;;;;13.33;63.66;99877.28;1795592;79;21181;-59
2023/04/06 01:05:58;;;;;;;16.20;6.12;;;;;;;13.31;63.71;99876.66;1802580;78;21190;-58
2023/04/06 01:09:05;;;;;;;12.78;6.20;;;;;;;13.27;63.78;99867.66;1796094;79;21189;-59
2023/04/06 01:12:11;;;;;;;13.60;6.22;;;;;;;13.25;63.82;99866.49;1802679;79;21244;-58
2023/04/06 01:15:17;;;;;;;17.95;6.75;;;;;;;13.21;63.88;99863.81;1802664;79;21180;-58
2023/04/06 01:18:22;;;;;;;21.62;6.95;;;;;;;13.18;63.95;99868.88;1802533;79;21375;-59
2023/04/06 01:21:29;;;;;;;14.47;6.70;;;;;;;13.15;64.02;99875.64;1802370;79;21212;-58
2023/04/06 01:24:40;;;;;;;11.60;6.28;;;;;;;13.13;64.09;99875.50;1802601;79;21323;-59
2023/04/06 01:27:48;;;;;;;11.85;6.87;;;;;;;13.09;64.13;99870.11;1802528;79;21249;-58
2023/04/06 01:31:08;;;;;;;14.90;6.78;;;;;;;13.07;64.20;99875.81;1802799;78;21241;-58
2023/04/06 01:34:16;;;;;;;13.00;7.30;;;;;;;13.05;64.29;99874.33;1803089;79;21189;-58
2023/04/06 01:37:24;;;;;;;14.55;6.80;;;;;;;13.02;64.37;99863.20;1802843;79;21185;-57
2023/04/06 01:40:30;;;;;;;18.70;7.40;;;;;;;13.02;64.44;99856.33;1793854;79;21221;-58
2023/04/06 01:43:37;;;;;;;15.70;6.87;;;;;;;13.02;64.49;99866.47;1802788;79;21209;-58
2023/04/06 01:46:43;;;;;;;17.32;6.92;;;;;;;13.02;64.53;99866.47;1803059;79;21201;-59
2023/04/06 01:49:51;;;;;;;14.83;6.42;;;;;;;13.01;64.60;99868.39;1801695;79;21158;-58
2023/04/06 01:52:59;;;;;;;14.23;6.28;;;;;;;12.99;64.63;99862.20;1767550;80;21195;-58
2023/04/06 01:56:06;;;;;;;15.28;6.83;;;;;;;12.97;64.67;99872.55;1767812;80;21425;-58
2023/04/06 01:59:13;;;;;;;10.95;6.20;;;;;;;12.95;64.73;99869.17;1768159;80;21184;-59
2023/04/06 02:02:21;;;;;;;14.78;6.45;;;;;;;12.94;64.81;99866.60;1767920;80;21723;-59
2023/04/06 02:05:30;;;;;;;18.92;6.20;;;;;;;12.92;64.83;99874.22;1767961;81;21231;-58
2023/04/06 02:08:41;;;;;;;11.25;5.97;;;;;;;12.89;64.87;99867.22;1768092;81;21188;-59
2023/04/06 02:11:48;;;;;;;14.78;6.12;;;;;;;12.87;64.91;99872.60;1767953;80;21204;-59
2023/04/06 02:14:55;;;;;;;14.30;5.70;;;;;;;12.86;64.96;99875.05;1768081;80;21184;-58
2023/04/06 02:18:02;;;;;;;18.57;7.10;;;;;;;12.87;65.05;99872.09;1768113;81;21228;-59
2023/04/06 02:21:07;;;;;;;11.00;6.28;;;;;;;12.90;65.09;99879.06;1767969;80;21252;-56
2023/04/06 02:24:14;;;;;;;15.30;6.17;;;;;;;12.91;65.13;99879.37;1767961;81;21235;-57
2023/04/06 02:27:21;;;;;;;12.73;6.12;;;;;;;12.92;65.18;99883.84;1732514;81;21196;-57
2023/04/06 02:30:29;;;;;;;13.95;6.53;;;;;;;12.94;65.24;99890.81;1767931;81;21251;-56
2023/04/06 02:33:35;;;;;;;14.43;6.50;;;;;;;12.96;65.26;99889.23;1768033;81;21160;-56
2023/04/06 02:36:42;;;;;;;11.33;6.28;;;;;;;12.96;65.28;99883.73;1768016;80;21314;-56
2023/04/06 02:39:47;;;;;;;18.23;6.30;;;;;;;12.98;65.29;99880.27;1768179;80;21172;-56
2023/04/06 02:42:53;;;;;;;14.50;5.85;;;;;;;12.97;65.26;99886.28;1767945;80;21192;-56
2023/04/06 02:45:59;;;;;;;14.63;5.95;;;;;;;12.95;65.28;99888.41;1768141;80;21192;-56
2023/04/06 02:49:05;;;;;;;16.50;6.03;;;;;;;12.95;65.34;99887.03;1767933;81;21208;-57
2023/04/06 02:52:13;;;;;;;16.17;6.62;;;;;;;12.95;65.37;99895.28;1784364;78;21335;-57
2023/04/06 02:55:20;;;;;;;17.17;5.72;;;;;;;12.95;65.42;99898.54;1794384;79;21222;-56
2023/04/06 02:58:29;;;;;;;12.43;5.83;;;;;;;12.94;65.41;99903.69;1803335;79;21342;-55
2023/04/06 03:01:36;;;;;;;11.10;5.97;;;;;;;12.92;65.43;99909.39;1803678;79;21327;-56
2023/04/06 03:04:42;;;;;;;17.70;6.28;;;;;;;12.94;65.48;99909.19;1803224;79;21240;-56
2023/04/06 03:07:49;;;;;;;11.88;5.90;;;;;;;12.94;65.49;99909.19;1803300;79;21264;-56
2023/04/06 03:11:01;;;;;;;13.38;6.45;;;;;;;12.93;65.51;99912.48;1803175;79;21245;-56
2023/04/06 03:14:09;;;;;;;16.75;6.72;;;;;;;12.95;65.53;99912.28;1803732;79;21174;-57
2023/04/06 03:17:14;;;;;;;16.42;6.78;;;;;;;12.92;65.51;99913.52;1802960;79;21186;-57
2023/04/06 03:20:23;;;;;;;12.07;6.70;;;;;;;12.91;65.58;99925.56;1803058;79;21154;-57
2023/04/06 03:23:24;;;;;;;12.30;6.62;;;;;;;12.90;65.67;99922.50;1803548;78;21323;-57
2023/04/06 03:26:33;;;;;;;16.87;6.92;;;;;;;12.91;65.67;99925.56;1803204;79;21363;-58
2023/04/06 03:29:40;;;;;;;15.58;6.60;;;;;;;12.88;65.62;99934.72;1803302;79;21228;-57
2023/04/06 03:32:49;;;;;;;17.87;7.40;;;;;;;12.85;65.60;99936.51;1803245;78;21185;-57
2023/04/06 03:35:58;;;;;;;15.28;6.80;;;;;;;12.82;65.71;99939.14;1803081;79;21317;-56
2023/04/06 03:39:08;;;;;;;14.68;7.12;;;;;;;12.83;65.82;99946.33;1803192;79;21288;-55
2023/04/06 03:42:16;;;;;;;17.82;7.95;;;;;;;12.84;65.87;99946.66;1803529;79;21312;-56
2023/04/06 03:45:23;;;;;;;15.20;7.00;;;;;;;12.87;65.96;99949.01;1802821;79;21275;-56
2023/04/06 03:48:30;;;;;;;15.25;8.38;;;;;;;12.90;66.01;99941.73;1803033;79;21355;-56
2023/04/06 03:51:36;;;;;;;19.60;8.40;;;;;;;12.91;65.95;99950.28;1803046;78;21197;-56
2023/04/06 03:54:43;;;;;;;21.57;8.88;;;;;;;12.92;66.04;99960.22;1801154;79;21177;-57
2023/04/06 03:57:50;;;;;;;22.10;9.80;;;;;;;12.92;66.06;99961.59;1802968;79;21237;-56
2023/04/06 04:00:56;;;;;;;21.12;9.60;;;;;;;12.93;66.04;99960.56;1803243;79;21189;-56
2023/04/06 04:04:04;;;;;;;16.80;9.70;;;;;;;12.91;66.06;99954.92;1803095;79;21174;-56
2023/04/06 04:07:11;;;;;;;22.77;10.20;;;;;;;12.88;66.19;99955.33;1802957;79;21260;-55
2023/04/06 04:10:17;;;;;;;21.70;9.93;;;;;;;12.88;66.25;99959.45;1802589;79;21154;-56
2023/04/06 04:13:23;;;;;;;19.05;8.83;;;;;;;12.88;66.32;99971.30;1802668;79;21249;-56
2023/04/06 04:16:30;;;;;;;21.02;9.75;;;;;;;12.91;66.42;99967.28;1802799;79;21314;-55
2023/04/06 04:19:38;;;;;;;18.67;8.43;;;;;;;12.95;66.46;99966.71;1803122;79;21323;-55
2023/04/06 04:22:46;;;;;;;16.55;8.60;;;;;;;12.98;66.49;99973.69;1802871;78;21197;-55
2023/04/06 04:25:55;;;;;;;15.98;8.70;;;;;;;13.01;66.44;99984.31;1803063;79;21193;-55
2023/04/06 04:29:01;;;;;;;18.07;9.78;;;;;;;13.03;66.55;99974.80;1802640;79;21201;-56
2023/04/06 04:32:10;;;;;;;17.25;9.20;;;;;;;13.08;66.61;99983.29;1802749;79;21198;-57
2023/04/06 04:35:15;;;;;;;17.40;9.48;;;;;;;13.13;66.71;99985.42;1802464;79;21182;-57
2023/04/06 04:38:22;;;;;;;22.87;14.70;;;;;;;13.18;66.78;99988.42;1802599;79;21324;-57
2023/04/06 04:41:22;;;;;;;19.25;12.10;;;;;;;13.18;66.68;99987.05;1802167;78;21390;-56
2023/04/06 04:44:29;;;;;;;86.17;38.92;;;;;;;13.16;66.76;99985.88;1802203;78;21178;-55
2023/04/06 04:47:35;;;;;;;36.75;19.60;;;;;;;13.19;66.83;99977.78;1802140;79;21371;-56
2023/04/06 04:50:44;;;;;;;56.45;29.23;;;;;;;13.23;66.89;99981.80;1801973;78;21207;-56
2023/04/06 04:53:53;;;;;;;50.80;27.15;;;;;;;13.26;66.98;99986.37;1782694;79;21295;-56
2023/04/06 04:56:59;;;;;;;34.60;19.52;;;;;;;13.30;66.94;99987.66;1789592;79;21205;-56
2023/04/06 05:00:06;;;;;;;31.87;18.90;;;;;;;13.31;66.95;99981.13;1793938;79;21340;-56
2023/04/06 05:03:13;;;;;;;44.18;26.35;;;;;;;13.33;67.00;99983.67;1794972;79;21194;-55
2023/04/06 05:06:25;;;;;;;37.00;21.45;;;;;;;13.37;67.06;99989.92;1800149;79;21240;-57
2023/04/06 05:09:31;;;;;;;27.35;15.43;;;;;;;13.39;67.14;99992.47;1769357;80;21189;-57
2023/04/06 05:12:38;;;;;;;25.80;14.25;;;;;;;13.42;67.19;99992.92;1769814;79;21809;-58
2023/04/06 05:15:46;;;;;;;23.75;13.55;;;;;;;13.43;67.16;99997.36;1771095;80;21935;-58
2023/04/06 05:19:01;;;;;;;23.35;12.63;;;;;;;13.44;67.18;99996.84;1770620;80;21260;-58
2023/04/06 05:22:09;;;;;;;23.60;12.35;;;;;;;13.44;67.19;99994.95;1770048;79;21781;-57
2023/04/06 05:25:18;;;;;;;22.85;12.13;;;;;;;13.41;67.05;100005.50;1787985;79;21270;-59
2023/04/06 05:28:32;;;;;;;21.48;12.45;;;;;;;13.36;67.03;100003.36;1776205;79;21296;-58
2023/04/06 05:31:42;;;;;;;16.60;10.98;;;;;;;13.32;67.07;100008.06;1791372;79;21198;-59
2023/04/06 05:34:59;;;;;;;27.93;12.35;;;;;;;13.28;67.15;100012.28;1775695;80;21213;-58
2023/04/06 05:38:07;;;;;;;20.08;12.68;;;;;;;13.25;67.20;100015.44;1769974;79;21220;-58
2023/04/06 05:41:13;;;;;;;21.60;13.53;;;;;;;13.20;67.21;100018.80;1769636;80;21209;-57
2023/04/06 05:44:19;;;;;;;35.52;15.98;;;;;;;13.15;67.27;100020.44;1769840;80;21195;-58
2023/04/06 05:47:30;;;;;;;23.65;12.68;;;;;;;13.07;67.31;100021.97;1770428;80;21746;-58
2023/04/06 05:50:38;;;;;;;36.88;17.00;;;;;;;13.02;67.45;100025.32;1769906;79;21244;-59
2023/04/06 05:53:45;;;;;;;38.78;23.65;;;;;;;13.01;67.59;100027.76;1770824;80;21571;-58
2023/04/06 05:56:53;;;;;;;58.00;27.95;;;;;;;13.03;67.74;100031.13;1768644;80;21241;-58
2023/04/06 05:59:59;;;;;;;36.20;15.85;;;;;;;13.05;67.82;100033.70;1770813;79;21320;-58
2023/04/06 06:03:08;;;;;;;26.87;13.00;;;;;;;13.09;67.89;100019.87;1770737;79;21177;-57
2023/04/06 06:06:17;;;;;;;24.98;15.03;;;;;;;13.14;67.99;100027.00;1783563;79;21209;-59
2023/04/06 06:09:37;;;;;;;27.55;13.72;;;;;;;13.19;68.06;100023.95;1770264;80;21196;-57
2023/04/06 06:12:48;;;;;;;17.70;9.18;;;;;;;13.24;68.10;100024.75;1770164;80;21221;-58
2023/04/06 06:16:00;;;;;;;21.52;9.03;;;;;;;13.30;68.14;100034.39;1782960;79;21205;-58
2023/04/06 06:19:13;;;;;;;14.20;7.80;;;;;;;13.33;68.22;100028.48;1779864;79;21182;-66
2023/04/06 06:22:23;;;;;;;28.12;15.50;;;;;;;13.35;68.20;100036.02;1778714;79;21268;-64
2023/04/06 06:25:31;;;;;;;20.17;10.23;;;;;;;13.35;68.11;100044.81;1784316;79;21197;-65
2023/04/06 06:28:47;;;;;;;12.25;7.22;;;;;;;13.28;68.06;100038.41;1780950;79;21182;-64
2023/04/06 06:31:53;;;;;;;12.43;6.15;;;;;;;13.28;68.23;100042.52;1771090;80;21205;-63
2023/04/06 06:35:02;;;;;;;10.68;7.22;;;;;;;13.32;68.41;100040.55;1735648;82;21323;-65
2023/04/06 06:38:20;;;;;;;12.93;8.75;;;;;;;13.36;68.43;100045.98;1727439;81;21742;-58
2023/04/06 06:41:29;;;;;;;14.15;7.95;;;;;;;13.44;68.52;100046.34;1789217;79;21346;-58
2023/04/06 06:44:37;;;;;;;16.70;8.13;;;;;;;13.49;68.56;100045.20;1775657;79;21205;-57
2023/04/06 06:47:45;;;;;;;15.20;7.30;;;;;;;13.53;68.60;100047.86;1772954;79;21538;-57
2023/04/06 06:50:56;;;;;;;12.37;8.48;;;;;;;13.51;68.56;100060.95;1783881;79;21328;-57
2023/04/06 06:54:04;;;;;;;13.00;7.83;;;;;;;13.49;68.60;100059.78;1770717;80;21233;-57
2023/04/06 06:57:11;;;;;;;10.15;7.42;;;;;;;13.43;68.53;100052.34;1769091;80;21268;-58
2023/04/06 07:00:24;;;;;;;10.50;7.35;;;;;;;13.40;68.67;100063.75;1775139;78;21214;-63
2023/04/06 07:03:28;;;;;;;12.63;7.85;;;;;;;13.41;68.77;100056.36;1801315;79;21714;-58
2023/04/06 07:06:35;;;;;;;12.07;7.85;;;;;;;13.47;68.92;100056.92;1790120;78;21237;-58
2023/04/06 07:09:42;;;;;;;14.73;7.60;;;;;;;13.57;69.03;100070.31;1770034;80;21169;-57
2023/04/06 07:12:49;;;;;;;12.63;7.97;;;;;;;13.69;69.08;100075.55;1770009;81;21314;-58
2023/04/06 07:15:57;;;;;;;9.75;7.30;;;;;;;13.74;69.00;100078.03;1770589;80;21225;-58
2023/04/06 07:19:03;;;;;;;10.03;7.47;;;;;;;13.70;68.99;100075.89;1771500;79;21225;-57
2023/04/06 07:22:09;;;;;;;11.73;8.08;;;;;;;13.69;69.06;100079.16;1799600;79;21629;-58
2023/04/06 07:25:17;;;;;;;10.15;8.00;;;;;;;13.69;69.17;100089.30;1770209;80;21193;-57
2023/04/06 07:28:24;;;;;;;12.45;7.75;;;;;;;13.70;69.25;100083.59;1763565;79;21298;-58
2023/04/06 07:31:31;;;;;;;11.93;8.08;;;;;;;13.73;69.31;100085.94;1781080;79;21754;-59
2023/04/06 07:34:40;;;;;;;12.00;8.00;;;;;;;13.76;69.37;100087.45;1796447;79;21189;-58
2023/04/06 07:37:47;;;;;;;12.75;8.88;;;;;;;13.78;69.39;100086.19;1764743;81;21597;-58
2023/04/06 07:40:55;;;;;;;10.85;8.15;;;;;;;13.80;69.43;100088.73;1751074;82;21354;-57
2023/04/06 07:44:02;;;;;;;18.07;11.57;;;;;;;13.77;69.30;100092.75;1735043;82;21244;-57
2023/04/06 07:47:10;;;;;;;20.62;13.38;;;;;;;13.66;69.15;100104.84;1751422;81;21198;-57
2023/04/06 07:50:19;;;;;;;25.05;15.05;;;;;;;13.44;69.04;100102.19;1716757;82;21185;-58
2023/04/06 07:53:27;;;;;;;22.82;14.55;;;;;;;13.22;68.91;100110.68;1750809;81;21749;-58
2023/04/06 07:56:34;;;;;;;26.33;14.33;;;;;;;13.08;69.05;100122.62;1723272;82;21272;-57
2023/04/06 07:59:43;;;;;;;21.93;14.18;;;;;;;13.03;69.25;100120.98;1725553;82;21288;-61
2023/04/06 08:02:50;;;;;;;23.18;13.15;;;;;;;13.08;69.50;100119.87;1741006;81;21524;-60
2023/04/06 08:05:57;;;;;;;36.08;19.35;;;;;;;13.17;69.60;100126.40;1713727;81;21217;-61
2023/04/06 08:09:04;;;;;;;25.65;13.15;;;;;;;13.25;69.69;100138.63;1797215;80;21291;-59
2023/04/06 08:12:10;;;;;;;20.37;13.50;;;;;;;13.33;69.69;100135.70;1789339;78;21193;-60
2023/04/06 08:15:18;;;;;;;16.05;9.68;;;;;;;13.39;69.70;100137.68;1771932;79;21185;-60
2023/04/06 08:18:25;;;;;;;12.63;7.67;;;;;;;13.36;69.50;100138.08;1791286;79;21170;-60
2023/04/06 08:21:30;;;;;;;11.18;7.45;;;;;;;13.30;69.43;100147.65;1800037;79;21566;-58
2023/04/06 08:24:36;;;;;;;12.33;5.95;;;;;;;13.31;69.62;100144.70;1798311;79;21180;-59
2023/04/06 08:27:43;;;;;;;6.20;4.60;;;;;;;13.47;69.79;100149.91;1803044;79;21376;-58
2023/04/06 08:30:51;;;;;;;9.70;4.03;;;;;;;13.72;69.93;100150.79;1783335;79;21774;-59
2023/04/06 08:33:57;;;;;;;7.30;4.78;;;;;;;13.92;69.90;100146.28;1755605;81;21240;-60
2023/04/06 08:37:03;;;;;;;8.58;4.10;;;;;;;14.02;69.71;100145.36;1777678;79;21195;-59
2023/04/06 08:40:09;;;;;;;7.03;3.40;;;;;;;14.21;69.86;100144.09;1765228;79;21201;-58
2023/04/06 08:43:20;;;;;;;6.08;4.20;;;;;;;14.35;69.71;100143.13;1719093;82;21204;-59
2023/04/06 08:46:31;;;;;;;7.50;4.85;;;;;;;14.42;69.56;100145.39;1772200;79;21399;-59
2023/04/06 08:49:41;;;;;;;7.28;5.00;;;;;;;14.30;69.26;100151.15;1771674;80;21201;-59
2023/04/06 08:52:54;;;;;;;7.42;4.50;;;;;;;14.28;69.29;100152.42;1763766;81;21210;-59
2023/04/06 08:56:02;;;;;;;7.67;4.30;;;;;;;14.26;69.41;100157.28;1734539;82;21219;-60
2023/04/06 08:59:08;;;;;;;5.90;3.77;;;;;;;14.24;69.22;100156.63;1771873;78;21348;-59
2023/04/06 09:02:15;;;;;;;8.45;3.90;;;;;;;14.20;69.28;100162.20;1717366;82;21208;-59
2023/04/06 09:05:22;;;;;;;9.03;4.92;;;;;;;14.20;69.33;100171.31;1705176;83;21193;-59
2023/04/06 09:08:30;;;;;;;6.67;4.10;;;;;;;14.25;69.46;100169.36;1724557;82;21233;-58
2023/04/06 09:11:36;;;;;;;6.37;4.45;;;;;;;14.28;69.44;100177.20;1726140;82;21640;-57
2023/04/06 09:14:43;;;;;;;6.45;4.20;;;;;;;14.26;69.36;100177.92;1717011;81;21206;-59
2023/04/06 09:17:51;;;;;;;6.47;3.92;;;;;;;14.19;69.25;100175.66;1801199;79;21190;-59
2023/04/06 09:21:10;;;;;;;7.03;4.25;;;;;;;14.21;69.46;100176.27;1775885;79;21236;-60
2023/04/06 09:24:24;;;;;;;6.37;3.85;;;;;;;14.23;69.45;100187.42;1801752;79;21315;-59
2023/04/06 09:27:39;;;;;;;5.10;3.50;;;;;;;14.28;69.57;100188.22;1802074;79;21749;-59
2023/04/06 09:30:44;;;;;;;5.10;3.70;;;;;;;14.28;69.56;100188.22;1801829;79;21343;-60
2023/04/06 09:33:53;;;;;;;5.33;3.47;;;;;;;14.31;69.58;100185.05;1795429;79;21259;-59
2023/04/06 09:36:55;;;;;;;5.55;3.55;;;;;;;14.34;69.60;100191.01;1802306;78;21253;-59
2023/04/06 09:39:52;;;;;;;5.70;3.90;;;;;;;14.37;69.56;100183.70;1803846;79;21202;-59
2023/04/06 09:42:59;;;;;;;7.67;3.85;;;;;;;14.43;69.58;100191.14;1794985;79;21225;-60
2023/04/06 09:46:07;;;;;;;5.33;3.33;;;;;;;14.47;69.52;100188.84;1802292;79;21363;-59
2023/04/06 09:49:17;;;;;;;7.83;3.95;;;;;;;14.42;69.50;100195.48;1802515;78;22121;-60
2023/04/06 09:52:28;;;;;;;4.75;3.47;;;;;;;14.43;69.60;100194.45;1783077;79;21211;-58
2023/04/06 09:55:50;;;;;;;6.45;3.80;;;;;;;14.53;69.75;100194.38;1783465;79;21211;-60
2023/04/06 09:59:00;;;;;;;6.50;3.47;;;;;;;14.65;69.73;100204.28;1788605;79;21237;-59
2023/04/06 10:02:08;;;;;;;9.78;5.78;;;;;;;14.73;69.72;100204.93;1769010;80;21235;-59
2023/04/06 10:05:31;;;;;;;7.50;4.20;;;;;;;14.85;69.91;100201.05;1772249;80;21188;-60
2023/04/06 10:08:40;;;;;;;5.17;3.80;;;;;;;15.01;69.94;100203.44;1776557;80;21215;-59
2023/04/06 10:11:50;;;;;;;6.50;3.50;;;;;;;15.13;69.83;100204.50;1777082;80;21243;-59
2023/04/06 10:14:56;;;;;;;6.40;3.60;;;;;;;15.16;69.75;100204.08;1777177;79;21199;-61
2023/04/06 10:18:04;;;;;;;5.12;3.20;;;;;;;15.13;69.52;100205.88;1778676;80;21164;-61
2023/04/06 10:21:17;;;;;;;5.60;3.60;;;;;;;15.05;69.38;100209.38;1774838;80;21582;-59
2023/04/06 10:24:24;;;;;;;5.33;3.35;;;;;;;15.00;69.54;100203.09;1775467;78;21180;-59
2023/04/06 10:27:37;;;;;;;6.65;3.90;;;;;;;14.97;69.58;100198.00;1776561;79;21243;-60
2023/04/06 10:30:50;;;;;;;5.80;3.60;;;;;;;15.06;69.68;100206.94;1775609;80;21172;-59
2023/04/06 10:34:08;;;;;;;8.07;4.27;;;;;;;15.12;69.67;100203.34;1772740;79;21208;-59
2023/04/06 10:37:23;;;;;;;5.70;3.87;;;;;;;15.09;69.56;100203.23;1759992;80;21180;-58
2023/04/06 10:40:32;;;;;;;6.55;3.87;;;;;;;15.08;69.66;100208.41;1778187;80;21197;-58
2023/04/06 10:43:44;;;;;;;8.50;3.80;;;;;;;15.09;69.69;100206.52;1753324;81;21393;-59
2023/04/06 10:46:50;;;;;;;7.80;3.70;;;;;;;15.07;69.65;100202.59;1761785;81;21819;-58
2023/04/06 10:49:55;;;;;;;10.35;4.28;;;;;;;14.98;69.63;100207.44;1702102;82;21224;-58
2023/04/06 10:53:09;;;;;;;6.60;3.65;;;;;;;14.91;69.70;100202.97;1735861;82;21219;-58
2023/04/06 10:56:21;;;;;;;6.15;4.10;;;;;;;14.82;69.76;100213.36;1763145;81;21220;-59
2023/04/06 10:59:29;;;;;;;8.35;4.17;;;;;;;14.83;69.98;100204.53;1764699;80;21189;-58
2023/04/06 11:02:38;;;;;;;7.60;4.53;;;;;;;14.82;70.09;100214.73;1767658;79;21769;-60
2023/04/06 11:05:45;;;;;;;10.25;6.30;;;;;;;14.82;70.13;100205.09;1780652;79;21201;-59
2023/04/06 11:08:54;;;;;;;12.70;6.53;;;;;;;14.83;70.17;100212.80;1769935;80;21190;-59
2023/04/06 11:12:02;;;;;;;9.85;6.67;;;;;;;14.90;70.18;100213.14;1769659;80;21415;-58
2023/04/06 11:15:11;;;;;;;11.43;6.40;;;;;;;14.98;70.13;100217.64;1770699;80;21196;-58
2023/04/06 11:18:19;;;;;;;10.53;6.30;;;;;;;15.10;70.29;100206.30;1771183;79;21181;-58
2023/04/06 11:21:28;;;;;;;11.83;6.87;;;;;;;15.22;70.29;100210.16;1759504;81;21236;-58
2023/04/06 11:24:36;;;;;;;11.55;6.58;;;;;;;15.22;70.04;100223.95;1794780;79;21181;-59
2023/04/06 11:27:45;;;;;;;11.80;6.70;;;;;;;15.24;70.13;100217.67;1801550;78;21562;-59
2023/04/06 11:30:55;;;;;;;12.37;7.30;;;;;;;15.32;70.18;100222.16;1796704;79;21441;-60
2023/04/06 11:34:06;;;;;;;8.53;5.67;;;;;;;15.46;70.34;100223.35;1773842;79;21201;-59
2023/04/06 11:37:19;;;;;;;10.65;5.90;;;;;;;15.57;70.24;100225.48;1789273;78;21370;-59
2023/04/06 11:40:33;;;;;;;8.35;5.03;;;;;;;15.58;70.03;100229.95;1800638;79;21335;-59
2023/04/06 11:43:39;;;;;;;7.95;4.40;;;;;;;15.51;69.83;100230.47;1801425;79;21229;-59
2023/04/06 11:46:46;;;;;;;6.65;4.28;;;;;;;15.40;69.69;100238.52;1764430;81;21228;-60
2023/04/06 11:49:56;;;;;;;8.53;4.35;;;;;;;15.34;69.63;100244.33;1800580;79;21166;-59
2023/04/06 11:53:07;;;;;;;6.60;3.40;;;;;;;15.23;69.47;100240.80;1801620;79;21323;-59
2023/04/06 11:56:13;;;;;;;6.03;3.98;;;;;;;15.23;69.69;100238.56;1801868;78;21383;-59
2023/04/06 11:59:22;;;;;;;5.00;3.22;;;;;;;15.33;69.86;100238.50;1758890;80;21241;-60
2023/04/06 12:02:31;;;;;;;6.00;3.95;;;;;;;15.40;69.85;100244.89;1776038;79;21257;-59
2023/04/06 12:05:40;;;;;;;5.78;3.80;;;;;;;15.45;69.71;100236.84;1773449;79;21199;-60
2023/04/06 12:08:47;;;;;;;7.05;3.65;;;;;;;15.41;69.50;100234.20;1765466;79;21252;-59
2023/04/06 12:11:54;;;;;;;6.97;3.98;;;;;;;15.38;69.41;100233.20;1772347;79;22101;-58
2023/04/06 12:15:02;;;;;;;11.00;4.35;;;;;;;15.33;69.32;100232.98;1781433;79;21750;-58
2023/04/06 12:18:10;;;;;;;6.97;4.25;;;;;;;15.37;69.56;100235.62;1780581;79;21732;-59
2023/04/06 12:21:17;;;;;;;6.80;4.10;;;;;;;15.36;69.51;100238.08;1772228;80;21191;-59
2023/04/06 12:24:24;;;;;;;6.08;3.65;;;;;;;15.45;69.71;100240.11;1772785;80;21755;-58
2023/04/06 12:27:31;;;;;;;7.17;3.83;;;;;;;15.50;69.74;100231.54;1772502;80;21741;-58
2023/04/06 12:30:41;;;;;;;6.78;4.05;;;;;;;15.59;69.75;100230.78;1782977;79;21765;-58
2023/04/06 12:33:48;;;;;;;5.53;3.87;;;;;;;15.64;69.68;100233.77;1804536;79;21674;-58
2023/04/06 12:36:54;;;;;;;13.85;4.37;;;;;;;15.66;69.61;100236.65;1781130;79;21197;-58
2023/04/06 12:40:02;;;;;;;7.47;4.28;;;;;;;15.62;69.44;100235.35;1757574;81;21193;-58
2023/04/06 12:43:10;;;;;;;9.00;4.05;;;;;;;15.56;69.37;100238.97;1789766;79;21248;-57
2023/04/06 12:46:20;;;;;;;6.65;3.98;;;;;;;15.52;69.52;100233.56;1773782;79;21214;-58
2023/04/06 12:49:27;;;;;;;6.50;4.40;;;;;;;15.58;69.70;100231.86;1778461;79;21891;-56
2023/04/06 12:52:36;;;;;;;7.58;4.20;;;;;;;15.64;69.80;100231.86;1771033;79;21316;-58
2023/04/06 12:55:45;;;;;;;8.03;4.55;;;;;;;15.72;69.75;100237.17;1771909;79;21205;-57
2023/04/06 12:58:50;;;;;;;31.25;15.72;;;;;;;15.76;69.48;100237.60;1781443;79;21742;-58
2023/04/06 13:01:58;;;;;;;8.68;6.45;;;;;;;15.76;69.40;100233.46;1771785;80;21218;-58
2023/04/06 13:05:05;;;;;;;10.85;4.85;;;;;;;15.70;69.34;100242.05;1773978;79;21617;-58
2023/04/06 13:08:11;;;;;;;6.05;4.00;;;;;;;15.61;69.31;100240.56;1776189;79;21754;-58
2023/04/06 13:11:17;;;;;;;5.85;3.98;;;;;;;15.41;68.97;100246.61;1776530;79;21601;-58
2023/04/06 13:14:24;;;;;;;6.05;4.05;;;;;;;15.10;68.80;100243.52;1770236;79;21201;-58
2023/04/06 13:17:31;;;;;;;7.40;4.53;;;;;;;14.80;68.85;100245.77;1784289;79;21197;-56
2023/04/06 13:20:37;;;;;;;6.90;4.60;;;;;;;14.55;68.96;100254.26;1786246;79;21229;-57
2023/04/06 13:23:43;;;;;;;8.40;5.40;;;;;;;14.32;68.97;100262.47;1778404;79;21189;-58
2023/04/06 13:26:49;;;;;;;6.97;5.53;;;;;;;14.04;68.93;100263.00;1785652;79;21248;-57
2023/04/06 13:29:56;;;;;;;7.62;6.10;;;;;;;13.72;69.03;100271.84;1778885;79;21204;-57
2023/04/06 13:33:04;;;;;;;10.78;8.28;;;;;;;13.47;69.20;100274.17;1786809;79;21252;-58
2023/04/06 13:36:11;;;;;;;10.08;7.92;;;;;;;13.27;69.36;100271.76;1779049;79;21200;-59
2023/04/06 13:39:17;;;;;;;10.43;9.33;;;;;;;13.10;69.48;100285.39;1780678;79;21298;-57
2023/04/06 13:42:25;;;;;;;12.82;10.48;;;;;;;12.93;69.66;100286.65;1801796;79;21256;-59
2023/04/06 13:45:31;;;;;;;15.08;11.10;;;;;;;12.85;69.94;100290.88;1795510;78;21310;-58
2023/04/06 13:48:37;;;;;;;16.25;11.38;;;;;;;12.81;70.12;100297.28;1788655;79;21508;-59
2023/04/06 13:51:39;;;;;;;15.78;10.25;;;;;;;12.79;70.23;100299.91;1771911;79;21762;-59
2023/04/06 13:54:31;;;;;;;;;;;;;;;12.68;70.13;100309.49;1772713;80;21205;-58
2023/04/06 13:57:19;;;;;;;13.03;7.30;;;;;;;12.56;70.18;100313.75;1761581;81;20253;-58
2023/04/06 14:00:14;;;;;;;12.33;8.85;;;;;;;12.48;70.32;100309.72;1770209;80;21702;-58
2023/04/06 14:03:01;;;;;;;12.13;8.80;;;;;;;12.46;70.44;100309.59;1764934;79;21197;-59
2023/04/06 14:06:01;;;;;;;12.13;7.67;;;;;;;12.44;70.50;100312.53;1770637;78;21213;-60
2023/04/06 14:09:07;;;;;;;13.75;8.60;;;;;;;12.41;70.58;100317.03;1733861;82;21196;-60
2023/04/06 14:12:13;;;;;;;11.88;8.83;;;;;;;12.37;70.63;100317.60;1724077;82;21810;-59
2023/04/06 14:15:21;;;;;;;14.00;9.93;;;;;;;12.30;70.70;100318.02;1721288;82;21340;-59
2023/04/06 14:18:30;;;;;;;12.78;9.63;;;;;;;12.26;70.76;100324.39;1726239;82;21261;-60
2023/04/06 14:21:34;;;;;;;11.85;9.15;;;;;;;12.17;70.80;100325.52;1716014;82;21240;-59
2023/04/06 14:24:41;;;;;;;13.53;10.75;;;;;;;12.08;70.91;100318.94;1732833;82;21202;-61
2023/04/06 14:27:48;;;;;;;12.60;9.20;;;;;;;12.04;71.08;100318.45;1763305;81;21271;-59